createdAt,value
2023-03-10T00:00:09.420Z,32.20
2023-03-10T00:03:01.276Z,30.90
2023-03-10T00:05:33.095Z,33.30
2023-03-10T00:08:05.073Z,31.10
2023-03-10T00:10:36.898Z,33.60
2023-03-10T00:13:08.687Z,34.90
2023-03-10T00:15:40.596Z,31.30
2023-03-10T00:18:12.794Z,33.00
2023-03-10T00:20:44.669Z,33.20
2023-03-10T00:23:16.893Z,32.90
2023-03-10T00:25:56.649Z,34.00
2023-03-10T00:28:29.342Z,34.60
2023-03-10T00:31:04.851Z,33.80
2023-03-10T00:33:37.195Z,34.90
2023-03-10T00:36:12.102Z,33.30
2023-03-10T00:38:44.825Z,34.20
2023-03-10T00:43:47.921Z,33.20
2023-03-10T00:46:20.049Z,33.50
2023-03-10T00:48:52.262Z,32.90
2023-03-10T00:51:24.636Z,31.80
2023-03-10T00:53:56.412Z,33.30
2023-03-10T00:56:30.643Z,33.70
2023-03-10T00:59:02.690Z,33.60
2023-03-10T01:01:36.883Z,27.10
2023-03-10T01:04:10.852Z,35.30
2023-03-10T01:06:44.576Z,34.00
2023-03-10T01:09:16.528Z,33.70
2023-03-10T01:11:49.070Z,34.40
2023-03-10T01:14:22.029Z,35.50
2023-03-10T01:19:26.003Z,34.40
2023-03-10T01:21:57.795Z,34.90
2023-03-10T01:24:29.668Z,36.70
2023-03-10T01:27:01.431Z,35.60
2023-03-10T01:29:33.234Z,33.40
2023-03-10T01:32:05.128Z,34.20
2023-03-10T01:34:36.926Z,34.70
2023-03-10T01:37:08.973Z,34.40
2023-03-10T01:39:40.729Z,32.90
2023-03-10T01:42:12.840Z,35.20
2023-03-10T01:45:04.105Z,34.50
2023-03-10T01:47:35.847Z,33.40
2023-03-10T01:50:10.771Z,36.10
2023-03-10T01:52:45.200Z,34.70
2023-03-10T01:55:20.942Z,36.30
2023-03-10T01:57:54.960Z,35.80
2023-03-10T02:00:29.444Z,32.70
2023-03-10T02:03:08.812Z,42.50
2023-03-10T02:05:44.908Z,34.90
2023-03-10T02:08:19.348Z,34.70
2023-03-10T02:10:52.499Z,33.40
2023-03-10T02:13:24.439Z,33.00
2023-03-10T02:15:56.261Z,32.60
2023-03-10T02:18:29.434Z,32.00
2023-03-10T02:21:11.387Z,32.70
2023-03-10T02:24:01.112Z,31.80
2023-03-10T02:26:43.198Z,33.10
2023-03-10T02:29:22.649Z,32.20
2023-03-10T02:31:55.926Z,31.20
2023-03-10T02:34:29.205Z,32.10
2023-03-10T02:37:01.092Z,30.60
2023-03-10T02:39:32.937Z,23.90
2023-03-10T02:42:06.431Z,32.10
2023-03-10T02:44:39.670Z,31.20
2023-03-10T02:47:11.579Z,29.80
2023-03-10T02:49:44.201Z,30.30
2023-03-10T02:52:32.778Z,28.50
2023-03-10T02:55:04.816Z,29.20
2023-03-10T02:57:36.636Z,29.10
2023-03-10T03:00:11.254Z,30.90
2023-03-10T03:02:43.150Z,29.10
2023-03-10T03:05:15.062Z,29.90
2023-03-10T03:07:48.176Z,30.20
2023-03-10T03:10:21.476Z,29.00
2023-03-10T03:12:56.068Z,27.40
2023-03-10T03:15:28.481Z,27.20
2023-03-10T03:20:33.257Z,26.00
2023-03-10T03:23:05.413Z,26.50
2023-03-10T03:25:40.458Z,27.80
2023-03-10T03:28:14.582Z,29.30
2023-03-10T03:30:48.675Z,27.30
2023-03-10T03:33:20.534Z,27.60
2023-03-10T03:35:52.344Z,27.50
2023-03-10T03:38:24.406Z,27.90
2023-03-10T03:40:57.452Z,29.50
2023-03-10T03:43:29.546Z,28.30
2023-03-10T03:46:01.636Z,28.80
2023-03-10T03:48:34.769Z,29.00
2023-03-10T03:51:08.080Z,30.60
2023-03-10T03:53:43.654Z,28.60
2023-03-10T03:56:16.516Z,27.80
2023-03-10T03:58:48.996Z,31.80
2023-03-10T04:01:21.102Z,29.90
2023-03-10T04:03:55.448Z,28.40
2023-03-10T04:06:27.940Z,29.20
2023-03-10T04:08:59.989Z,29.30
2023-03-10T04:14:03.225Z,28.40
2023-03-10T04:16:35.680Z,28.10
2023-03-10T04:19:08.784Z,28.10
2023-03-10T04:21:42.938Z,29.90
2023-03-10T04:24:14.886Z,30.80
2023-03-10T04:26:47.170Z,30.50
2023-03-10T04:29:19.072Z,30.00
2023-03-10T04:32:04.725Z,22.70
2023-03-10T04:34:38.688Z,31.70
2023-03-10T04:37:10.908Z,31.90
2023-03-10T04:39:43.091Z,32.20
2023-03-10T04:42:15.691Z,32.70
2023-03-10T04:44:47.501Z,32.70
2023-03-10T04:47:19.582Z,32.20
2023-03-10T04:49:52.200Z,32.10
2023-03-10T04:52:25.126Z,34.40
2023-03-10T04:54:57.337Z,33.00
2023-03-10T04:57:30.051Z,30.80
2023-03-10T05:00:03.328Z,33.00
2023-03-10T05:02:37.551Z,36.30
2023-03-10T05:05:10.630Z,35.10
2023-03-10T05:07:44.083Z,34.30
2023-03-10T05:10:16.823Z,34.50
2023-03-10T05:12:48.924Z,36.20
2023-03-10T05:15:21.260Z,36.50
2023-03-10T05:17:54.122Z,34.40
2023-03-10T05:20:26.659Z,36.40
2023-03-10T05:22:58.904Z,35.60
2023-03-10T05:25:31.243Z,37.00
2023-03-10T05:28:03.679Z,35.60
2023-03-10T05:30:37.385Z,36.90
2023-03-10T05:33:09.562Z,35.40
2023-03-10T05:35:41.984Z,34.30
2023-03-10T05:38:14.155Z,36.00
2023-03-10T05:40:46.050Z,36.30
2023-03-10T05:43:18.362Z,24.20
2023-03-10T05:45:59.401Z,36.50
2023-03-10T05:48:32.430Z,36.60
2023-03-10T05:53:37.164Z,36.90
2023-03-10T05:56:11.496Z,38.00
2023-03-10T05:58:44.626Z,36.40
2023-03-10T06:01:17.494Z,37.10
2023-03-10T06:03:49.376Z,36.40
2023-03-10T06:06:21.358Z,37.30
2023-03-10T06:08:53.224Z,38.30
2023-03-10T06:11:25.312Z,37.20
2023-03-10T06:13:58.072Z,39.70
2023-03-10T06:16:30.860Z,36.80
2023-03-10T06:19:02.656Z,38.90
2023-03-10T06:21:34.493Z,38.50
2023-03-10T06:24:06.589Z,38.10
2023-03-10T06:26:38.603Z,38.80
2023-03-10T06:29:10.738Z,41.90
2023-03-10T06:31:43.048Z,41.50
2023-03-10T06:34:14.838Z,40.90
2023-03-10T06:36:46.769Z,39.90
2023-03-10T06:39:18.600Z,41.60
2023-03-10T06:41:50.388Z,32.10
2023-03-10T06:44:22.307Z,41.60
2023-03-10T06:46:54.096Z,40.60
2023-03-10T06:49:29.262Z,38.70
2023-03-10T06:52:01.629Z,41.00
2023-03-10T06:54:33.912Z,43.50
2023-03-10T06:57:06.941Z,41.80
2023-03-10T06:59:38.838Z,42.40
2023-03-10T07:02:13.538Z,42.20
2023-03-10T07:04:45.581Z,41.40
2023-03-10T07:07:17.450Z,42.30
2023-03-10T07:09:49.322Z,43.30
2023-03-10T07:12:21.135Z,45.10
2023-03-10T07:14:53.152Z,42.90
2023-03-10T07:17:24.914Z,40.90
2023-03-10T07:19:56.945Z,41.50
2023-03-10T07:22:28.972Z,40.80
2023-03-10T07:25:00.816Z,40.20
2023-03-10T07:27:33.773Z,40.50
2023-03-10T07:30:06.616Z,41.90
2023-03-10T07:32:38.578Z,39.60
2023-03-10T07:35:11.852Z,38.60
2023-03-10T07:37:43.602Z,38.40
2023-03-10T07:40:15.890Z,39.90
2023-03-10T07:42:47.670Z,38.90
2023-03-10T07:45:20.329Z,37.00
2023-03-10T07:47:52.836Z,36.50
2023-03-10T07:50:24.850Z,34.30
2023-03-10T07:52:56.730Z,33.40
2023-03-10T07:55:28.536Z,35.90
2023-03-10T07:58:01.131Z,32.70
2023-03-10T08:00:32.911Z,31.40
2023-03-10T08:03:04.811Z,24.00
2023-03-10T08:05:40.156Z,33.80
2023-03-10T08:08:12.272Z,34.10
2023-03-10T08:10:44.120Z,35.90
2023-03-10T08:13:16.087Z,36.20
2023-03-10T08:15:48.039Z,35.70
2023-03-10T08:18:20.066Z,35.80
2023-03-10T08:20:51.912Z,25.00
2023-03-10T08:23:41.669Z,35.30
2023-03-10T08:26:17.901Z,34.00
2023-03-10T08:28:50.521Z,35.70
2023-03-10T08:31:23.349Z,34.10
2023-03-10T08:33:58.513Z,33.50
2023-03-10T08:36:32.526Z,33.40
2023-03-10T08:39:05.720Z,33.40
2023-03-10T08:41:39.778Z,31.60
2023-03-10T08:44:15.257Z,28.30
2023-03-10T08:46:49.809Z,28.00
2023-03-10T08:49:23.109Z,25.50
2023-03-10T08:51:55.133Z,24.60
2023-03-10T08:54:27.065Z,24.90
2023-03-10T08:56:59.447Z,18.40
2023-03-10T08:59:31.504Z,17.50
2023-03-10T09:02:03.526Z,15.20
2023-03-10T09:04:35.634Z,12.30
2023-03-10T09:07:07.730Z,12.00
2023-03-10T09:09:39.663Z,12.10
2023-03-10T09:12:12.423Z,9.40
2023-03-10T09:17:14.424Z,11.10
2023-03-10T09:19:46.340Z,10.30
2023-03-10T09:22:18.511Z,9.60
2023-03-10T09:24:50.344Z,9.30
2023-03-10T09:27:22.455Z,10.00
2023-03-10T09:29:54.220Z,10.30
2023-03-10T09:32:26.286Z,9.40
2023-03-10T09:34:58.254Z,9.60
2023-03-10T09:37:30.197Z,10.10
2023-03-10T09:40:03.797Z,9.30
2023-03-10T09:42:42.183Z,7.70
2023-03-10T09:45:25.302Z,8.80
2023-03-10T09:48:08.669Z,8.20
2023-03-10T09:50:44.642Z,8.40
2023-03-10T09:53:39.874Z,8.10
2023-03-10T09:56:16.807Z,9.60
2023-03-10T09:58:51.970Z,8.80
2023-03-10T10:01:26.509Z,7.70
2023-03-10T10:04:01.707Z,8.20
2023-03-10T10:06:37.991Z,8.30
2023-03-10T10:09:16.425Z,7.80
2023-03-10T10:11:48.685Z,8.40
2023-03-10T10:14:31.457Z,8.20
2023-03-10T10:17:10.701Z,8.20
2023-03-10T10:19:43.021Z,8.20
2023-03-10T10:22:24.438Z,8.20
2023-03-10T10:25:08.310Z,6.50
2023-03-10T10:27:41.871Z,7.60
2023-03-10T10:30:33.140Z,6.60
2023-03-10T10:33:07.730Z,6.40
2023-03-10T10:35:41.538Z,5.40
2023-03-10T10:38:27.107Z,6.20
2023-03-10T10:41:07.006Z,6.50
2023-03-10T10:43:45.534Z,5.60
2023-03-10T10:46:26.030Z,5.30
2023-03-10T10:49:07.602Z,5.10
2023-03-10T10:51:39.629Z,5.30
2023-03-10T10:54:28.464Z,5.60
2023-03-10T10:57:02.463Z,5.30
2023-03-10T10:59:36.501Z,4.40
2023-03-10T11:02:28.150Z,4.40
2023-03-10T11:05:14.422Z,3.90
2023-03-10T11:07:46.451Z,3.90
2023-03-10T11:10:20.817Z,3.60
2023-03-10T11:13:14.212Z,4.60
2023-03-10T11:15:55.854Z,3.70
2023-03-10T11:18:32.998Z,4.10
2023-03-10T11:21:13.216Z,4.00
2023-03-10T11:23:51.750Z,4.20
2023-03-10T11:26:44.642Z,4.00
2023-03-10T11:31:56.294Z,3.80
2023-03-10T11:34:32.884Z,4.00
2023-03-10T11:37:16.922Z,3.70
2023-03-10T11:40:07.471Z,4.20
2023-03-10T11:42:48.368Z,3.70
2023-03-10T11:45:28.607Z,4.10
2023-03-10T11:48:27.059Z,3.90
2023-03-10T11:51:00.967Z,3.90
2023-03-10T11:53:39.294Z,3.80
2023-03-10T11:56:12.481Z,4.00
2023-03-10T11:58:52.975Z,3.80
2023-03-10T12:01:30.673Z,3.90
2023-03-10T12:04:10.517Z,3.70
2023-03-10T12:06:49.126Z,4.30
2023-03-10T12:09:31.215Z,3.90
2023-03-10T12:12:06.221Z,4.40
2023-03-10T12:14:38.470Z,4.20
2023-03-10T12:17:14.538Z,3.50
2023-03-10T12:20:11.995Z,4.00
2023-03-10T12:22:46.620Z,4.30
2023-03-10T12:25:46.851Z,3.70
2023-03-10T12:28:27.913Z,3.90
2023-03-10T12:31:01.626Z,4.00
2023-03-10T12:34:09.145Z,4.00
2023-03-10T12:36:45.003Z,4.30
2023-03-10T12:39:39.766Z,3.50
2023-03-10T12:42:29.486Z,4.60
2023-03-10T12:45:24.192Z,4.30
2023-03-10T12:48:07.551Z,4.00
2023-03-10T12:50:52.629Z,4.60
2023-03-10T12:53:38.882Z,4.30
2023-03-10T12:56:23.665Z,3.50
2023-03-10T12:59:05.395Z,4.20
2023-03-10T13:01:55.160Z,4.20
2023-03-10T13:04:29.193Z,4.60
2023-03-10T13:07:03.884Z,4.00
2023-03-10T13:09:42.358Z,4.60
2023-03-10T13:12:21.462Z,4.00
2023-03-10T13:14:58.278Z,4.00
2023-03-10T13:17:31.915Z,5.10
2023-03-10T13:20:09.520Z,3.50
2023-03-10T13:22:43.394Z,3.50
2023-03-10T13:25:17.241Z,3.40
2023-03-10T13:27:49.104Z,3.50
2023-03-10T13:30:26.678Z,3.90
2023-03-10T13:33:01.369Z,3.60
2023-03-10T13:35:36.295Z,3.80
2023-03-10T13:38:13.282Z,3.70
2023-03-10T13:40:47.553Z,5.30
2023-03-10T13:43:38.836Z,4.60
2023-03-10T13:46:18.463Z,4.30
2023-03-10T13:48:51.865Z,4.10
2023-03-10T13:51:25.833Z,4.50
2023-03-10T13:54:11.774Z,4.30
2023-03-10T13:56:45.019Z,4.40
2023-03-10T13:59:21.002Z,3.80
2023-03-10T14:01:56.450Z,4.30
2023-03-10T14:04:47.584Z,4.70
2023-03-10T14:07:21.576Z,4.00
2023-03-10T14:10:14.947Z,4.80
2023-03-10T14:12:48.786Z,4.50
2023-03-10T14:15:27.301Z,4.80
2023-03-10T14:18:19.474Z,5.00
2023-03-10T14:20:51.384Z,5.20
2023-03-10T14:23:29.136Z,5.60
2023-03-10T14:26:02.006Z,5.30
2023-03-10T14:28:34.751Z,4.50
2023-03-10T14:31:06.827Z,5.90
2023-03-10T14:33:40.544Z,6.70
2023-03-10T14:36:13.845Z,7.90
2023-03-10T14:38:48.464Z,7.60
2023-03-10T14:41:24.112Z,7.70
2023-03-10T14:43:56.183Z,6.90
2023-03-10T14:46:28.610Z,6.60
2023-03-10T14:49:00.715Z,7.10
2023-03-10T14:51:35.841Z,8.20
2023-03-10T14:54:17.503Z,7.40
2023-03-10T14:56:53.697Z,6.80
2023-03-10T14:59:26.243Z,6.20
2023-03-10T15:02:00.482Z,5.50
2023-03-10T15:04:32.552Z,5.30
2023-03-10T15:07:04.769Z,5.60
2023-03-10T15:09:36.675Z,5.90
2023-03-10T15:12:09.581Z,4.90
2023-03-10T15:14:41.749Z,5.30
2023-03-10T15:17:15.273Z,5.60
2023-03-10T15:19:47.249Z,5.10
2023-03-10T15:22:19.706Z,5.10
2023-03-10T15:24:51.697Z,5.30
2023-03-10T15:27:23.516Z,5.80
2023-03-10T15:29:55.409Z,4.10
2023-03-10T15:32:27.504Z,4.00
2023-03-10T15:35:00.299Z,6.30
2023-03-10T15:37:32.244Z,6.20
2023-03-10T15:40:05.069Z,5.90
2023-03-10T15:42:37.425Z,6.10
2023-03-10T15:45:10.952Z,6.30
2023-03-10T15:47:42.966Z,6.30
2023-03-10T15:50:16.640Z,5.00
2023-03-10T15:52:50.749Z,7.10
2023-03-10T15:55:23.493Z,7.50
2023-03-10T16:00:27.903Z,10.20
2023-03-10T16:02:59.701Z,10.40
2023-03-10T16:05:32.152Z,12.60
2023-03-10T16:08:06.271Z,12.60
2023-03-10T16:10:39.870Z,11.60
2023-03-10T16:13:11.553Z,14.40
2023-03-10T16:15:43.682Z,13.60
2023-03-10T16:18:15.729Z,12.70
2023-03-10T16:20:55.411Z,15.80
2023-03-10T16:23:27.906Z,16.80
2023-03-10T16:26:08.622Z,14.50
2023-03-10T16:28:42.129Z,13.20
2023-03-10T16:31:15.860Z,14.90
2023-03-10T16:33:48.614Z,15.40
2023-03-10T16:36:22.110Z,17.10
2023-03-10T16:38:54.430Z,18.60
2023-03-10T16:41:28.524Z,19.60
2023-03-10T16:44:04.391Z,19.20
2023-03-10T16:46:36.397Z,18.60
2023-03-10T16:49:08.777Z,20.10
2023-03-10T16:51:42.414Z,19.50
2023-03-10T16:54:16.881Z,19.80
2023-03-10T16:56:51.133Z,19.90
2023-03-10T16:59:25.086Z,21.20
2023-03-10T17:01:57.560Z,23.30
2023-03-10T17:04:29.822Z,27.80
2023-03-10T17:07:02.291Z,29.20
2023-03-10T17:09:35.693Z,30.10
2023-03-10T17:12:09.766Z,29.80
2023-03-10T17:14:44.156Z,27.20
2023-03-10T17:17:16.859Z,24.60
2023-03-10T17:19:52.646Z,24.70
2023-03-10T17:22:25.300Z,25.90
2023-03-10T17:25:00.762Z,21.80
2023-03-10T17:27:33.419Z,20.70
2023-03-10T17:30:06.592Z,19.30
2023-03-10T17:32:39.205Z,18.50
2023-03-10T17:35:13.356Z,18.30
2023-03-10T17:37:47.860Z,23.00
2023-03-10T17:40:22.947Z,18.20
2023-03-10T17:42:57.850Z,18.60
2023-03-10T17:45:32.816Z,18.50
2023-03-10T17:48:05.022Z,18.40
2023-03-10T17:50:37.389Z,18.40
2023-03-10T17:53:09.800Z,17.60
2023-03-10T17:58:13.325Z,21.70
2023-03-10T18:00:46.204Z,20.30
2023-03-10T18:05:50.319Z,19.00
2023-03-10T18:08:23.282Z,19.50
2023-03-10T18:11:04.443Z,21.80
2023-03-10T18:13:37.509Z,22.80
2023-03-10T18:16:20.882Z,21.30
2023-03-10T18:18:54.752Z,21.20
2023-03-10T18:21:28.390Z,21.10
2023-03-10T18:24:01.152Z,23.60
2023-03-10T18:29:04.276Z,24.70
2023-03-10T18:31:37.556Z,38.20
2023-03-10T18:36:42.709Z,33.10
2023-03-10T18:39:15.019Z,36.40
2023-03-10T18:41:47.399Z,34.30
2023-03-10T18:44:19.670Z,30.90
2023-03-10T18:46:51.918Z,30.80
2023-03-10T18:49:24.799Z,28.20
2023-03-10T18:51:57.241Z,30.80
2023-03-10T18:54:30.555Z,22.40
2023-03-10T18:57:06.280Z,33.20
2023-03-10T18:59:40.450Z,32.10
2023-03-10T19:02:16.526Z,32.60
2023-03-10T19:04:49.124Z,39.50
2023-03-10T19:07:22.994Z,37.90
2023-03-10T19:09:56.826Z,36.40
2023-03-10T19:12:29.410Z,35.30
2023-03-10T19:15:05.402Z,35.70
2023-03-10T19:17:39.754Z,33.00
2023-03-10T19:20:15.669Z,30.00
2023-03-10T19:22:51.145Z,34.20
2023-03-10T19:25:25.784Z,33.20
2023-03-10T19:27:58.328Z,33.00
2023-03-10T19:30:31.763Z,34.30
2023-03-10T19:33:03.955Z,33.00
2023-03-10T19:35:35.831Z,31.50
2023-03-10T19:38:09.020Z,22.30
2023-03-10T19:40:41.421Z,30.30
2023-03-10T19:43:13.297Z,31.90
2023-03-10T19:45:45.784Z,31.80
2023-03-10T19:48:17.510Z,31.00
2023-03-10T19:50:55.411Z,33.20
2023-03-10T19:53:28.847Z,37.60
2023-03-10T19:56:03.721Z,32.30
2023-03-10T19:58:38.145Z,32.00
2023-03-10T20:01:14.740Z,36.00
2023-03-10T20:03:47.137Z,35.90
2023-03-10T20:08:52.088Z,32.40
2023-03-10T20:11:24.748Z,32.50
2023-03-10T20:13:56.922Z,32.40
2023-03-10T20:16:28.929Z,32.50
2023-03-10T20:19:01.107Z,34.10
2023-03-10T20:21:33.173Z,33.50
2023-03-10T20:24:05.487Z,24.40
2023-03-10T20:26:37.798Z,35.10
2023-03-10T20:29:09.888Z,36.60
2023-03-10T20:31:41.854Z,38.20
2023-03-10T20:34:22.132Z,28.70
2023-03-10T20:36:54.424Z,38.30
2023-03-10T20:39:27.124Z,29.60
2023-03-10T20:44:29.344Z,36.20
2023-03-10T20:47:01.119Z,33.60
2023-03-10T20:49:33.337Z,32.60
2023-03-10T20:52:05.515Z,32.90
2023-03-10T20:54:37.720Z,33.00
2023-03-10T20:57:10.203Z,32.20
2023-03-10T20:59:42.792Z,31.40
2023-03-10T21:02:16.986Z,31.30
2023-03-10T21:04:49.500Z,30.70
2023-03-10T21:07:21.338Z,32.40
2023-03-10T21:09:53.190Z,24.70
2023-03-10T21:12:25.161Z,26.60
2023-03-10T21:14:56.941Z,32.70
2023-03-10T21:17:29.381Z,31.60
2023-03-10T21:20:01.326Z,32.10
2023-03-10T21:22:35.254Z,31.80
2023-03-10T21:25:09.875Z,33.90
2023-03-10T21:27:42.205Z,35.10
2023-03-10T21:30:17.088Z,33.30
2023-03-10T21:32:49.056Z,33.80
2023-03-10T21:35:21.395Z,34.10
2023-03-10T21:37:55.485Z,35.30
2023-03-10T21:40:28.012Z,33.50
2023-03-10T21:43:02.540Z,33.40
2023-03-10T21:45:37.644Z,34.20
2023-03-10T21:48:11.582Z,34.30
2023-03-10T21:50:43.478Z,34.90
2023-03-10T21:53:15.497Z,35.50
2023-03-10T21:55:47.428Z,33.00
2023-03-10T21:58:19.839Z,25.20
2023-03-10T22:00:55.722Z,37.20
2023-03-10T22:03:27.976Z,38.10
2023-03-10T22:05:59.850Z,36.10
2023-03-10T22:08:31.730Z,37.90
2023-03-10T22:11:06.210Z,37.60
2023-03-10T22:13:38.991Z,39.50
2023-03-10T22:18:42.593Z,40.40
2023-03-10T22:21:14.647Z,32.30
2023-03-10T22:23:46.640Z,44.90
2023-03-10T22:26:18.395Z,30.30
2023-03-10T22:28:50.178Z,41.20
2023-03-10T22:31:23.755Z,38.90
2023-03-10T22:33:55.846Z,39.20
2023-03-10T22:36:27.856Z,39.00
2023-03-10T22:39:00.401Z,36.00
2023-03-10T22:44:02.973Z,33.70
2023-03-10T22:46:35.352Z,31.80
2023-03-10T22:49:07.638Z,29.20
2023-03-10T22:51:39.924Z,29.30
2023-03-10T22:54:12.008Z,28.30
2023-03-10T22:56:43.904Z,25.70
2023-03-10T22:59:15.915Z,23.10
2023-03-10T23:01:47.824Z,22.20
2023-03-10T23:04:20.210Z,15.20
2023-03-10T23:06:52.089Z,19.10
2023-03-10T23:09:23.984Z,16.90
2023-03-10T23:11:55.776Z,15.00
2023-03-10T23:14:27.623Z,14.60
2023-03-10T23:16:59.444Z,13.60
2023-03-10T23:19:31.200Z,15.20
2023-03-10T23:22:03.680Z,15.20
2023-03-10T23:24:35.518Z,14.80
2023-03-10T23:27:07.715Z,14.00
2023-03-10T23:29:39.545Z,12.60
2023-03-10T23:32:11.731Z,11.60
2023-03-10T23:34:43.917Z,12.30
2023-03-10T23:37:18.749Z,14.20
2023-03-10T23:39:51.086Z,12.30
2023-03-10T23:42:23.064Z,12.40
2023-03-10T23:44:54.835Z,9.00
2023-03-10T23:47:27.041Z,12.60
2023-03-10T23:49:59.542Z,13.80
2023-03-10T23:52:32.006Z,13.30
2023-03-10T23:57:34.280Z,13.30
